sensor_id;sensor_type;location;lat;lon;timestamp;pressure;altitude;pressure_sealevel;temperature;humidity
44441;BME280;30146;52.268;20.944;2023-09-07T00:00:36;101267.69;;;17.55;63.23
44441;BME280;30146;52.268;20.944;2023-09-07T00:03:08;101268.61;;;17.52;63.23
44441;BME280;30146;52.268;20.944;2023-09-07T00:05:39;101272.66;;;17.49;63.33
44441;BME280;30146;52.268;20.944;2023-09-07T00:08:10;101269.77;;;17.47;63.41
44441;BME280;30146;52.268;20.944;2023-09-07T00:10:42;101273.29;;;17.44;63.43
44441;BME280;30146;52.268;20.944;2023-09-07T00:13:13;101273.69;;;17.42;63.47
44441;BME280;30146;52.268;20.944;2023-09-07T00:15:44;101271.68;;;17.39;63.47
44441;BME280;30146;52.268;20.944;2023-09-07T00:18:15;101272.05;;;17.38;63.63
44441;BME280;30146;52.268;20.944;2023-09-07T00:20:49;101272.97;;;17.36;63.80
44441;BME280;30146;52.268;20.944;2023-09-07T00:23:20;101274.23;;;17.34;63.70
44441;BME280;30146;52.268;20.944;2023-09-07T00:25:51;101275.30;;;17.32;63.82
44441;BME280;30146;52.268;20.944;2023-09-07T00:28:23;101272.58;;;17.30;63.94
44441;BME280;30146;52.268;20.944;2023-09-07T00:30:55;101270.39;;;17.28;63.85
44441;BME280;30146;52.268;20.944;2023-09-07T00:33:27;101270.07;;;17.26;64.04
44441;BME280;30146;52.268;20.944;2023-09-07T00:36:01;101271.49;;;17.25;64.04
44441;BME280;30146;52.268;20.944;2023-09-07T00:38:32;101271.38;;;17.22;64.12
44441;BME280;30146;52.268;20.944;2023-09-07T00:41:04;101271.59;;;17.20;64.27
44441;BME280;30146;52.268;20.944;2023-09-07T00:43:35;101270.41;;;17.19;64.20
44441;BME280;30146;52.268;20.944;2023-09-07T00:46:07;101267.19;;;17.16;64.30
44441;BME280;30146;52.268;20.944;2023-09-07T00:48:42;101268.96;;;17.13;64.21
44441;BME280;30146;52.268;20.944;2023-09-07T00:51:13;101269.36;;;17.11;64.26
44441;BME280;30146;52.268;20.944;2023-09-07T00:53:45;101268.36;;;17.09;64.41
44441;BME280;30146;52.268;20.944;2023-09-07T00:56:18;101270.48;;;17.07;64.38
44441;BME280;30146;52.268;20.944;2023-09-07T00:58:49;101273.81;;;17.05;64.29
44441;BME280;30146;52.268;20.944;2023-09-07T01:01:23;101270.75;;;17.03;64.25
44441;BME280;30146;52.268;20.944;2023-09-07T01:03:55;101270.99;;;17.00;64.27
44441;BME280;30146;52.268;20.944;2023-09-07T01:06:33;101270.14;;;16.99;64.49
44441;BME280;30146;52.268;20.944;2023-09-07T01:09:14;101266.05;;;16.97;64.64
44441;BME280;30146;52.268;20.944;2023-09-07T01:11:47;101266.56;;;16.97;64.78
44441;BME280;30146;52.268;20.944;2023-09-07T01:14:19;101267.07;;;16.98;64.81
44441;BME280;30146;52.268;20.944;2023-09-07T01:16:50;101270.35;;;16.97;64.71
44441;BME280;30146;52.268;20.944;2023-09-07T01:19:21;101272.45;;;16.96;64.62
44441;BME280;30146;52.268;20.944;2023-09-07T01:21:53;101274.22;;;16.95;64.72
44441;BME280;30146;52.268;20.944;2023-09-07T01:24:24;101277.71;;;16.92;64.79
44441;BME280;30146;52.268;20.944;2023-09-07T01:26:57;101282.56;;;16.91;64.79
44441;BME280;30146;52.268;20.944;2023-09-07T01:29:29;101283.25;;;16.91;65.00
44441;BME280;30146;52.268;20.944;2023-09-07T01:32:00;101282.58;;;16.91;65.07
44441;BME280;30146;52.268;20.944;2023-09-07T01:34:34;101282.73;;;16.92;65.14
44441;BME280;30146;52.268;20.944;2023-09-07T01:37:07;101281.20;;;16.91;65.12
44441;BME280;30146;52.268;20.944;2023-09-07T01:39:38;101281.38;;;16.91;65.14
44441;BME280;30146;52.268;20.944;2023-09-07T01:42:10;101280.84;;;16.91;65.25
44441;BME280;30146;52.268;20.944;2023-09-07T01:44:41;101286.90;;;16.90;65.19
44441;BME280;30146;52.268;20.944;2023-09-07T01:47:14;101286.74;;;16.90;65.29
44441;BME280;30146;52.268;20.944;2023-09-07T01:49:45;101284.19;;;16.88;65.18
44441;BME280;30146;52.268;20.944;2023-09-07T01:52:16;101284.41;;;16.86;65.10
44441;BME280;30146;52.268;20.944;2023-09-07T01:54:48;101284.10;;;16.84;65.04
44441;BME280;30146;52.268;20.944;2023-09-07T01:57:19;101279.29;;;16.82;65.11
44441;BME280;30146;52.268;20.944;2023-09-07T01:59:50;101283.48;;;16.80;65.04
44441;BME280;30146;52.268;20.944;2023-09-07T02:02:21;101284.77;;;16.76;65.09
44441;BME280;30146;52.268;20.944;2023-09-07T02:04:53;101277.75;;;16.72;65.09
44441;BME280;30146;52.268;20.944;2023-09-07T02:07:24;101277.98;;;16.69;65.12
44441;BME280;30146;52.268;20.944;2023-09-07T02:09:55;101276.33;;;16.66;65.16
44441;BME280;30146;52.268;20.944;2023-09-07T02:12:26;101278.11;;;16.62;65.06
44441;BME280;30146;52.268;20.944;2023-09-07T02:15:00;101279.05;;;16.59;65.10
44441;BME280;30146;52.268;20.944;2023-09-07T02:17:35;101279.11;;;16.55;65.13
44441;BME280;30146;52.268;20.944;2023-09-07T02:20:08;101283.33;;;16.51;65.36
44441;BME280;30146;52.268;20.944;2023-09-07T02:22:40;101280.46;;;16.48;65.33
44441;BME280;30146;52.268;20.944;2023-09-07T02:25:11;101280.88;;;16.44;65.56
44441;BME280;30146;52.268;20.944;2023-09-07T02:27:43;101280.73;;;16.43;65.61
44441;BME280;30146;52.268;20.944;2023-09-07T02:30:14;101284.06;;;16.41;65.68
44441;BME280;30146;52.268;20.944;2023-09-07T02:32:46;101282.36;;;16.39;65.77
44441;BME280;30146;52.268;20.944;2023-09-07T02:35:18;101283.24;;;16.38;65.83
44441;BME280;30146;52.268;20.944;2023-09-07T02:37:49;101285.34;;;16.36;65.85
44441;BME280;30146;52.268;20.944;2023-09-07T02:40:20;101287.44;;;16.34;65.87
44441;BME280;30146;52.268;20.944;2023-09-07T02:42:52;101288.17;;;16.32;65.89
44441;BME280;30146;52.268;20.944;2023-09-07T02:45:24;101286.84;;;16.29;66.00
44441;BME280;30146;52.268;20.944;2023-09-07T02:47:55;101288.95;;;16.27;65.98
44441;BME280;30146;52.268;20.944;2023-09-07T02:50:26;101289.86;;;16.25;66.09
44441;BME280;30146;52.268;20.944;2023-09-07T02:52:59;101291.09;;;16.24;66.02
44441;BME280;30146;52.268;20.944;2023-09-07T02:55:30;101293.37;;;16.22;66.18
44441;BME280;30146;52.268;20.944;2023-09-07T02:58:03;101294.24;;;16.20;66.25
44441;BME280;30146;52.268;20.944;2023-09-07T03:00:35;101295.13;;;16.19;66.45
44441;BME280;30146;52.268;20.944;2023-09-07T03:03:12;101297.54;;;16.20;66.64
44441;BME280;30146;52.268;20.944;2023-09-07T03:05:44;101295.63;;;16.20;66.62
44441;BME280;30146;52.268;20.944;2023-09-07T03:08:17;101294.41;;;16.21;66.61
44441;BME280;30146;52.268;20.944;2023-09-07T03:10:48;101291.84;;;16.20;66.75
44441;BME280;30146;52.268;20.944;2023-09-07T03:13:19;101294.60;;;16.20;66.87
44441;BME280;30146;52.268;20.944;2023-09-07T03:15:54;101297.52;;;16.20;66.78
44441;BME280;30146;52.268;20.944;2023-09-07T03:18:25;101301.34;;;16.20;66.86
44441;BME280;30146;52.268;20.944;2023-09-07T03:20:59;101304.62;;;16.19;66.95
44441;BME280;30146;52.268;20.944;2023-09-07T03:23:34;101306.20;;;16.18;66.92
44441;BME280;30146;52.268;20.944;2023-09-07T03:26:05;101304.52;;;16.16;66.94
44441;BME280;30146;52.268;20.944;2023-09-07T03:28:38;101300.39;;;16.14;66.94
44441;BME280;30146;52.268;20.944;2023-09-07T03:31:09;101301.64;;;16.12;66.89
44441;BME280;30146;52.268;20.944;2023-09-07T03:33:41;101298.20;;;16.11;67.10
44441;BME280;30146;52.268;20.944;2023-09-07T03:36:12;101301.50;;;16.10;67.02
44441;BME280;30146;52.268;20.944;2023-09-07T03:38:45;101301.20;;;16.08;67.16
44441;BME280;30146;52.268;20.944;2023-09-07T03:41:16;101304.32;;;16.07;67.19
44441;BME280;30146;52.268;20.944;2023-09-07T03:43:47;101307.61;;;16.06;67.25
44441;BME280;30146;52.268;20.944;2023-09-07T03:46:19;101307.45;;;16.05;67.29
44441;BME280;30146;52.268;20.944;2023-09-07T03:48:50;101305.23;;;16.05;67.42
44441;BME280;30146;52.268;20.944;2023-09-07T03:51:21;101304.35;;;16.05;67.41
44441;BME280;30146;52.268;20.944;2023-09-07T03:53:54;101307.97;;;16.04;67.41
44441;BME280;30146;52.268;20.944;2023-09-07T03:56:26;101312.29;;;16.04;67.53
44441;BME280;30146;52.268;20.944;2023-09-07T03:58:57;101314.34;;;16.05;67.59
44441;BME280;30146;52.268;20.944;2023-09-07T04:01:29;101312.27;;;16.06;67.77
44441;BME280;30146;52.268;20.944;2023-09-07T04:04:01;101312.40;;;16.08;67.80
44441;BME280;30146;52.268;20.944;2023-09-07T04:06:32;101313.77;;;16.08;67.87
44441;BME280;30146;52.268;20.944;2023-09-07T04:09:03;101314.08;;;16.10;67.94
44441;BME280;30146;52.268;20.944;2023-09-07T04:11:35;101318.53;;;16.12;68.06
44441;BME280;30146;52.268;20.944;2023-09-07T04:14:09;101315.20;;;16.15;68.16
44441;BME280;30146;52.268;20.944;2023-09-07T04:16:40;101314.64;;;16.18;68.25
44441;BME280;30146;52.268;20.944;2023-09-07T04:19:14;101312.70;;;16.20;68.30
44441;BME280;30146;52.268;20.944;2023-09-07T04:21:47;101315.08;;;16.24;68.41
44441;BME280;30146;52.268;20.944;2023-09-07T04:24:19;101312.59;;;16.27;68.59
44441;BME280;30146;52.268;20.944;2023-09-07T04:26:50;101312.71;;;16.30;68.65
44441;BME280;30146;52.268;20.944;2023-09-07T04:29:21;101316.10;;;16.34;68.66
44441;BME280;30146;52.268;20.944;2023-09-07T04:31:52;101315.14;;;16.39;68.75
44441;BME280;30146;52.268;20.944;2023-09-07T04:34:25;101314.55;;;16.52;69.06
44441;BME280;30146;52.268;20.944;2023-09-07T04:36:56;101314.30;;;16.75;69.50
44441;BME280;30146;52.268;20.944;2023-09-07T04:39:28;101313.41;;;17.03;69.53
44441;BME280;30146;52.268;20.944;2023-09-07T04:41:59;101313.17;;;17.39;69.67
44441;BME280;30146;52.268;20.944;2023-09-07T04:44:30;101319.11;;;17.81;69.77
44441;BME280;30146;52.268;20.944;2023-09-07T04:47:01;101318.36;;;18.27;69.46
44441;BME280;30146;52.268;20.944;2023-09-07T04:49:32;101317.67;;;18.71;69.01
44441;BME280;30146;52.268;20.944;2023-09-07T04:52:03;101321.77;;;19.12;68.11
44441;BME280;30146;52.268;20.944;2023-09-07T04:54:35;101322.45;;;19.47;67.24
44441;BME280;30146;52.268;20.944;2023-09-07T04:57:06;101328.09;;;19.78;66.47
44441;BME280;30146;52.268;20.944;2023-09-07T04:59:38;101329.25;;;20.06;65.70
44441;BME280;30146;52.268;20.944;2023-09-07T05:02:10;101332.44;;;20.30;65.13
44441;BME280;30146;52.268;20.944;2023-09-07T05:04:41;101340.16;;;20.58;64.57
44441;BME280;30146;52.268;20.944;2023-09-07T05:07:13;101340.80;;;20.94;64.14
44441;BME280;30146;52.268;20.944;2023-09-07T05:09:44;101340.17;;;21.34;63.74
44441;BME280;30146;52.268;20.944;2023-09-07T05:12:16;101341.13;;;21.77;62.91
44441;BME280;30146;52.268;20.944;2023-09-07T05:14:48;101342.98;;;22.21;62.01
44441;BME280;30146;52.268;20.944;2023-09-07T05:17:19;101343.80;;;22.67;61.27
44441;BME280;30146;52.268;20.944;2023-09-07T05:19:51;101345.22;;;23.14;60.81
44441;BME280;30146;52.268;20.944;2023-09-07T05:22:24;101351.28;;;23.63;59.94
44441;BME280;30146;52.268;20.944;2023-09-07T05:24:57;101348.69;;;24.09;59.26
44441;BME280;30146;52.268;20.944;2023-09-07T05:27:31;101350.05;;;24.58;58.35
44441;BME280;30146;52.268;20.944;2023-09-07T05:30:03;101353.39;;;25.08;57.72
44441;BME280;30146;52.268;20.944;2023-09-07T05:32:38;101351.86;;;25.55;56.80
44441;BME280;30146;52.268;20.944;2023-09-07T05:35:10;101353.09;;;25.98;55.81
44441;BME280;30146;52.268;20.944;2023-09-07T05:37:42;101354.77;;;26.42;55.13
44441;BME280;30146;52.268;20.944;2023-09-07T05:40:13;101356.02;;;26.88;54.51
44441;BME280;30146;52.268;20.944;2023-09-07T05:42:47;101351.09;;;27.33;53.60
44441;BME280;30146;52.268;20.944;2023-09-07T05:45:19;101353.52;;;27.74;52.59
44441;BME280;30146;52.268;20.944;2023-09-07T05:47:54;101357.48;;;28.13;51.83
44441;BME280;30146;52.268;20.944;2023-09-07T05:50:25;101359.20;;;28.55;51.49
44441;BME280;30146;52.268;20.944;2023-09-07T05:52:58;101358.02;;;29.00;51.02
44441;BME280;30146;52.268;20.944;2023-09-07T05:55:29;101359.88;;;29.43;50.07
44441;BME280;30146;52.268;20.944;2023-09-07T05:58:06;101366.15;;;29.85;49.47
44441;BME280;30146;52.268;20.944;2023-09-07T06:00:40;101373.05;;;30.31;48.88
44441;BME280;30146;52.268;20.944;2023-09-07T06:03:12;101377.05;;;30.67;47.53
44441;BME280;30146;52.268;20.944;2023-09-07T06:05:44;101373.64;;;30.99;47.23
44441;BME280;30146;52.268;20.944;2023-09-07T06:08:15;101376.27;;;31.35;45.90
44441;BME280;30146;52.268;20.944;2023-09-07T06:10:46;101377.40;;;31.58;44.99
44441;BME280;30146;52.268;20.944;2023-09-07T06:13:19;101376.73;;;31.83;44.82
44441;BME280;30146;52.268;20.944;2023-09-07T06:15:50;101375.81;;;32.16;44.66
44441;BME280;30146;52.268;20.944;2023-09-07T06:18:22;101378.84;;;32.28;42.99
44441;BME280;30146;52.268;20.944;2023-09-07T06:20:53;101379.11;;;32.41;42.55
44441;BME280;30146;52.268;20.944;2023-09-07T06:23:24;101381.71;;;32.65;42.66
44441;BME280;30146;52.268;20.944;2023-09-07T06:25:57;101383.58;;;33.00;42.93
44441;BME280;30146;52.268;20.944;2023-09-07T06:28:28;101383.39;;;33.38;42.64
44441;BME280;30146;52.268;20.944;2023-09-07T06:31:04;101382.48;;;33.78;42.20
44441;BME280;30146;52.268;20.944;2023-09-07T06:33:35;101387.95;;;34.19;41.57
44441;BME280;30146;52.268;20.944;2023-09-07T06:36:07;101388.23;;;34.56;41.06
44441;BME280;30146;52.268;20.944;2023-09-07T06:38:39;101386.65;;;34.91;40.67
44441;BME280;30146;52.268;20.944;2023-09-07T06:41:11;101382.89;;;35.23;39.82
44441;BME280;30146;52.268;20.944;2023-09-07T06:43:43;101382.02;;;35.50;39.63
44441;BME280;30146;52.268;20.944;2023-09-07T06:46:14;101381.25;;;35.74;38.92
44441;BME280;30146;52.268;20.944;2023-09-07T06:48:45;101384.13;;;35.93;38.39
44441;BME280;30146;52.268;20.944;2023-09-07T06:51:16;101380.23;;;36.09;38.15
44441;BME280;30146;52.268;20.944;2023-09-07T06:53:48;101380.81;;;36.26;37.63
44441;BME280;30146;52.268;20.944;2023-09-07T06:56:28;101383.92;;;36.51;37.37
44441;BME280;30146;52.268;20.944;2023-09-07T06:59:01;101385.73;;;36.77;37.21
44441;BME280;30146;52.268;20.944;2023-09-07T07:01:33;101384.02;;;36.98;36.72
44441;BME280;30146;52.268;20.944;2023-09-07T07:04:07;101384.73;;;37.19;36.01
44441;BME280;30146;52.268;20.944;2023-09-07T07:06:39;101389.37;;;37.28;35.53
44441;BME280;30146;52.268;20.944;2023-09-07T07:09:10;101389.96;;;37.48;35.49
44441;BME280;30146;52.268;20.944;2023-09-07T07:11:43;101387.45;;;37.71;35.45
44441;BME280;30146;52.268;20.944;2023-09-07T07:14:15;101390.69;;;37.87;34.64
44441;BME280;30146;52.268;20.944;2023-09-07T07:16:46;101397.26;;;38.01;34.05
44441;BME280;30146;52.268;20.944;2023-09-07T07:19:18;101398.02;;;38.21;34.09
44441;BME280;30146;52.268;20.944;2023-09-07T07:21:50;101395.16;;;38.39;33.50
44441;BME280;30146;52.268;20.944;2023-09-07T07:24:21;101399.55;;;38.40;32.84
44441;BME280;30146;52.268;20.944;2023-09-07T07:26:52;101399.94;;;38.45;32.66
44441;BME280;30146;52.268;20.944;2023-09-07T07:29:23;101403.30;;;38.58;32.75
44441;BME280;30146;52.268;20.944;2023-09-07T07:31:55;101406.87;;;38.66;32.65
44441;BME280;30146;52.268;20.944;2023-09-07T07:34:26;101403.19;;;38.66;32.59
44441;BME280;30146;52.268;20.944;2023-09-07T07:36:58;101404.31;;;38.80;33.00
44441;BME280;30146;52.268;20.944;2023-09-07T07:39:29;101402.95;;;38.99;32.86
44441;BME280;30146;52.268;20.944;2023-09-07T07:42:01;101408.88;;;39.14;32.58
44441;BME280;30146;52.268;20.944;2023-09-07T07:44:33;101409.98;;;39.20;32.23
44441;BME280;30146;52.268;20.944;2023-09-07T07:47:05;101411.32;;;39.27;32.40
44441;BME280;30146;52.268;20.944;2023-09-07T07:49:37;101413.26;;;39.27;32.21
44441;BME280;30146;52.268;20.944;2023-09-07T07:52:09;101414.60;;;39.24;32.15
44441;BME280;30146;52.268;20.944;2023-09-07T07:54:41;101417.06;;;39.21;32.13
44441;BME280;30146;52.268;20.944;2023-09-07T07:57:12;101413.57;;;39.16;31.94
44441;BME280;30146;52.268;20.944;2023-09-07T07:59:47;101413.49;;;39.10;32.06
44441;BME280;30146;52.268;20.944;2023-09-07T08:02:18;101415.11;;;39.10;32.37
44441;BME280;30146;52.268;20.944;2023-09-07T08:04:51;101414.80;;;39.05;32.17
44441;BME280;30146;52.268;20.944;2023-09-07T08:07:23;101413.89;;;38.87;32.22
44441;BME280;30146;52.268;20.944;2023-09-07T08:09:54;101412.48;;;38.63;32.25
44441;BME280;30146;52.268;20.944;2023-09-07T08:12:25;101415.71;;;38.29;32.04
44441;BME280;30146;52.268;20.944;2023-09-07T08:14:59;101415.41;;;37.90;32.21
44441;BME280;30146;52.268;20.944;2023-09-07T08:17:33;101414.95;;;37.39;31.90
44441;BME280;30146;52.268;20.944;2023-09-07T08:20:06;101414.07;;;37.00;32.90
44441;BME280;30146;52.268;20.944;2023-09-07T08:22:41;101411.40;;;36.70;33.37
44441;BME280;30146;52.268;20.944;2023-09-07T08:25:13;101409.73;;;36.41;33.81
44441;BME280;30146;52.268;20.944;2023-09-07T08:27:44;101412.73;;;36.13;33.71
44441;BME280;30146;52.268;20.944;2023-09-07T08:30:18;101411.68;;;35.88;34.34
44441;BME280;30146;52.268;20.944;2023-09-07T08:32:49;101413.64;;;35.65;34.12
44441;BME280;30146;52.268;20.944;2023-09-07T08:35:22;101414.64;;;35.36;34.57
44441;BME280;30146;52.268;20.944;2023-09-07T08:37:56;101416.85;;;35.15;35.06
44441;BME280;30146;52.268;20.944;2023-09-07T08:40:29;101419.02;;;34.96;34.98
44441;BME280;30146;52.268;20.944;2023-09-07T08:43:04;101415.87;;;34.78;35.67
44441;BME280;30146;52.268;20.944;2023-09-07T08:45:41;101417.85;;;34.66;35.86
44441;BME280;30146;52.268;20.944;2023-09-07T08:48:14;101419.91;;;34.53;35.80
44441;BME280;30146;52.268;20.944;2023-09-07T08:50:48;101417.48;;;34.38;35.46
44441;BME280;30146;52.268;20.944;2023-09-07T08:53:22;101415.88;;;34.20;35.46
44441;BME280;30146;52.268;20.944;2023-09-07T08:55:53;101415.48;;;34.01;35.55
44441;BME280;30146;52.268;20.944;2023-09-07T08:58:24;101410.45;;;33.75;35.80
44441;BME280;30146;52.268;20.944;2023-09-07T09:00:56;101415.51;;;33.58;36.38
44441;BME280;30146;52.268;20.944;2023-09-07T09:03:36;101412.66;;;33.38;36.19
44441;BME280;30146;52.268;20.944;2023-09-07T09:06:08;101410.55;;;33.22;36.66
44441;BME280;30146;52.268;20.944;2023-09-07T09:08:47;101410.77;;;33.11;36.92
44441;BME280;30146;52.268;20.944;2023-09-07T09:11:21;101406.80;;;32.98;36.74
44441;BME280;30146;52.268;20.944;2023-09-07T09:13:53;101406.65;;;32.78;36.57
44441;BME280;30146;52.268;20.944;2023-09-07T09:16:25;101408.46;;;32.60;36.69
44441;BME280;30146;52.268;20.944;2023-09-07T09:18:57;101404.58;;;32.46;37.03
44441;BME280;30146;52.268;20.944;2023-09-07T09:21:28;101410.11;;;32.39;37.50
44441;BME280;30146;52.268;20.944;2023-09-07T09:23:59;101407.96;;;32.33;37.72
44441;BME280;30146;52.268;20.944;2023-09-07T09:26:30;101409.45;;;32.26;37.49
44441;BME280;30146;52.268;20.944;2023-09-07T09:29:04;101401.23;;;32.18;37.46
44441;BME280;30146;52.268;20.944;2023-09-07T09:31:35;101402.80;;;32.12;37.31
44441;BME280;30146;52.268;20.944;2023-09-07T09:34:07;101405.20;;;32.02;37.21
44441;BME280;30146;52.268;20.944;2023-09-07T09:36:41;101403.05;;;31.94;37.42
44441;BME280;30146;52.268;20.944;2023-09-07T09:39:23;101406.42;;;31.88;37.71
44441;BME280;30146;52.268;20.944;2023-09-07T09:41:54;101402.33;;;31.81;37.71
44441;BME280;30146;52.268;20.944;2023-09-07T09:44:26;101402.33;;;31.75;37.74
44441;BME280;30146;52.268;20.944;2023-09-07T09:47:00;101400.42;;;31.68;37.82
44441;BME280;30146;52.268;20.944;2023-09-07T09:49:33;101398.02;;;31.61;37.86
44441;BME280;30146;52.268;20.944;2023-09-07T09:52:05;101397.84;;;31.57;37.85
44441;BME280;30146;52.268;20.944;2023-09-07T09:54:38;101397.56;;;31.54;38.18
44441;BME280;30146;52.268;20.944;2023-09-07T09:57:09;101398.60;;;31.54;38.83
44441;BME280;30146;52.268;20.944;2023-09-07T09:59:40;101396.38;;;31.55;38.82
44441;BME280;30146;52.268;20.944;2023-09-07T10:02:14;101397.20;;;31.54;38.45
44441;BME280;30146;52.268;20.944;2023-09-07T10:04:46;101401.91;;;31.48;37.67
44441;BME280;30146;52.268;20.944;2023-09-07T10:07:39;101400.09;;;31.35;37.66
44441;BME280;30146;52.268;20.944;2023-09-07T10:10:14;101397.98;;;31.17;37.68
44441;BME280;30146;52.268;20.944;2023-09-07T10:12:51;101400.08;;;31.02;37.58
44441;BME280;30146;52.268;20.944;2023-09-07T10:15:24;101396.02;;;30.93;38.48
44441;BME280;30146;52.268;20.944;2023-09-07T10:18:08;101397.17;;;30.87;38.32
44441;BME280;30146;52.268;20.944;2023-09-07T10:20:51;101396.14;;;30.82;38.43
44441;BME280;30146;52.268;20.944;2023-09-07T10:23:35;101393.93;;;30.81;38.92
44441;BME280;30146;52.268;20.944;2023-09-07T10:26:10;101393.02;;;30.83;39.60
44441;BME280;30146;52.268;20.944;2023-09-07T10:28:42;101395.94;;;30.89;39.85
44441;BME280;30146;52.268;20.944;2023-09-07T10:31:17;101397.55;;;30.92;39.44
44441;BME280;30146;52.268;20.944;2023-09-07T10:33:48;101395.60;;;30.82;39.06
44441;BME280;30146;52.268;20.944;2023-09-07T10:36:24;101393.88;;;30.68;39.18
44441;BME280;30146;52.268;20.944;2023-09-07T10:38:57;101397.25;;;30.50;39.24
44441;BME280;30146;52.268;20.944;2023-09-07T10:41:28;101391.77;;;30.31;39.18
44441;BME280;30146;52.268;20.944;2023-09-07T10:43:59;101393.54;;;30.15;39.29
44441;BME280;30146;52.268;20.944;2023-09-07T10:46:30;101391.77;;;29.98;39.29
44441;BME280;30146;52.268;20.944;2023-09-07T10:49:01;101386.67;;;29.86;39.32
44441;BME280;30146;52.268;20.944;2023-09-07T10:51:33;101389.09;;;29.72;39.44
44441;BME280;30146;52.268;20.944;2023-09-07T10:54:15;101389.88;;;29.54;39.56
44441;BME280;30146;52.268;20.944;2023-09-07T10:56:47;101386.85;;;29.43;39.57
44441;BME280;30146;52.268;20.944;2023-09-07T10:59:19;101391.54;;;29.36;39.65
44441;BME280;30146;52.268;20.944;2023-09-07T11:01:51;101389.05;;;29.29;39.55
44441;BME280;30146;52.268;20.944;2023-09-07T11:04:22;101382.24;;;29.21;39.74
44441;BME280;30146;52.268;20.944;2023-09-07T11:06:53;101386.88;;;29.12;39.62
44441;BME280;30146;52.268;20.944;2023-09-07T11:09:25;101383.29;;;28.96;39.72
44441;BME280;30146;52.268;20.944;2023-09-07T11:11:56;101383.81;;;28.76;39.96
44441;BME280;30146;52.268;20.944;2023-09-07T11:14:31;101381.48;;;28.58;40.16
44441;BME280;30146;52.268;20.944;2023-09-07T11:17:03;101379.98;;;28.44;40.49
44441;BME280;30146;52.268;20.944;2023-09-07T11:19:35;101379.87;;;28.33;40.78
44441;BME280;30146;52.268;20.944;2023-09-07T11:22:10;101377.36;;;28.20;40.70
44441;BME280;30146;52.268;20.944;2023-09-07T11:24:42;101383.09;;;28.08;40.67
44441;BME280;30146;52.268;20.944;2023-09-07T11:27:16;101380.98;;;27.95;40.85
44441;BME280;30146;52.268;20.944;2023-09-07T11:29:53;101374.64;;;27.84;41.22
44441;BME280;30146;52.268;20.944;2023-09-07T11:32:32;101373.55;;;27.79;41.54
44441;BME280;30146;52.268;20.944;2023-09-07T11:35:05;101373.97;;;27.81;42.30
44441;BME280;30146;52.268;20.944;2023-09-07T11:37:37;101369.91;;;27.84;42.09
44441;BME280;30146;52.268;20.944;2023-09-07T11:40:11;101367.35;;;27.85;41.72
44441;BME280;30146;52.268;20.944;2023-09-07T11:42:42;101366.30;;;27.85;41.65
44441;BME280;30146;52.268;20.944;2023-09-07T11:45:14;101366.98;;;27.86;41.78
44441;BME280;30146;52.268;20.944;2023-09-07T11:47:45;101362.22;;;27.83;41.12
44441;BME280;30146;52.268;20.944;2023-09-07T11:50:18;101366.21;;;27.79;41.07
44441;BME280;30146;52.268;20.944;2023-09-07T11:52:50;101363.59;;;27.76;41.30
44441;BME280;30146;52.268;20.944;2023-09-07T11:55:21;101362.70;;;27.74;41.46
44441;BME280;30146;52.268;20.944;2023-09-07T11:57:52;101361.65;;;27.73;41.54
44441;BME280;30146;52.268;20.944;2023-09-07T12:00:23;101358.63;;;27.74;41.84
44441;BME280;30146;52.268;20.944;2023-09-07T12:02:56;101357.86;;;27.75;41.50
44441;BME280;30146;52.268;20.944;2023-09-07T12:05:27;101357.94;;;27.76;41.46
44441;BME280;30146;52.268;20.944;2023-09-07T12:07:59;101358.08;;;27.72;41.29
44441;BME280;30146;52.268;20.944;2023-09-07T12:10:32;101359.46;;;27.67;41.10
44441;BME280;30146;52.268;20.944;2023-09-07T12:13:03;101364.00;;;27.59;40.93
44441;BME280;30146;52.268;20.944;2023-09-07T12:15:35;101362.13;;;27.52;41.15
44441;BME280;30146;52.268;20.944;2023-09-07T12:18:07;101359.68;;;27.44;41.32
44441;BME280;30146;52.268;20.944;2023-09-07T12:20:39;101359.23;;;27.35;41.32
44441;BME280;30146;52.268;20.944;2023-09-07T12:23:10;101361.20;;;27.31;41.55
44441;BME280;30146;52.268;20.944;2023-09-07T12:25:41;101354.86;;;27.29;41.66
44441;BME280;30146;52.268;20.944;2023-09-07T12:28:12;101354.34;;;27.29;41.84
44441;BME280;30146;52.268;20.944;2023-09-07T12:30:43;101351.73;;;27.29;41.73
44441;BME280;30146;52.268;20.944;2023-09-07T12:33:14;101349.27;;;27.29;41.53
44441;BME280;30146;52.268;20.944;2023-09-07T12:35:45;101349.08;;;27.29;41.36
44441;BME280;30146;52.268;20.944;2023-09-07T12:38:16;101343.27;;;27.29;41.51
44441;BME280;30146;52.268;20.944;2023-09-07T12:40:50;101345.31;;;27.30;41.39
44441;BME280;30146;52.268;20.944;2023-09-07T12:43:21;101341.88;;;27.29;41.35
44441;BME280;30146;52.268;20.944;2023-09-07T12:45:56;101342.08;;;27.29;41.63
44441;BME280;30146;52.268;20.944;2023-09-07T12:48:27;101338.45;;;27.27;41.42
44441;BME280;30146;52.268;20.944;2023-09-07T12:50:58;101331.69;;;27.25;41.20
44441;BME280;30146;52.268;20.944;2023-09-07T12:53:29;101330.89;;;27.24;41.07
44441;BME280;30146;52.268;20.944;2023-09-07T12:56:00;101331.95;;;27.24;41.10
44441;BME280;30146;52.268;20.944;2023-09-07T12:58:33;101328.30;;;27.24;40.85
44441;BME280;30146;52.268;20.944;2023-09-07T13:01:04;101329.20;;;27.21;40.66
44441;BME280;30146;52.268;20.944;2023-09-07T13:03:35;101324.23;;;27.16;40.69
44441;BME280;30146;52.268;20.944;2023-09-07T13:06:07;101319.12;;;27.11;40.65